Main page
METAR-TAF:

METAR-TAF

Airports :

Melilla Airport

Melilla, Spain

latitude: 35-17N, longitude: 002-57W, elevation: 47 m

Current weather observation

The report was made 36 minutes ago, at 23:30 UTC
Calm wind
Temperature 23°C
Humidity 73%
Pressure 1018 hPa
Visibility 10 km or more
no clouds below 1500 m and no cumulonimbus

METAR: GEML 052330Z AUTO 00000KT CAVOK 23/18 Q1018

Time: 02:06 (00:06 UTC)

Forecast

The report was made 4 hours and 6 minutes ago, at 20:00 UTC
Forecast valid from 05 at 21 UTC to 06 at 21 UTC
Wind 6 kt from the Northeast
Visibility 10 km or more
Few clouds at a height of 1500 ft
Probability 30% :
Temporary
from 06 at 03 UTC to 06 at 09 UTC
Broken clouds at a height of 1400 ft

TAF: GEML 052000Z 0521/0621 04006KT 9999 FEW015 TX28/0613Z TN22/0605Z PROB30 TEMPO 0603/0609 BKN014

Weather observations and forecasts of more than 4000 airports (METAR and TAF reports).

The available stations are represented by yellow and red dots on the map.

Hover mouse over dot to see the name of the station.

Then click to see weather observations and forecasts.

To change the map : click on the green buttons with a black cross to zoom in, on the green button with a dash to zoom out, or on the green arrows for adjacent maps.


METAR-TAF: